createdAt,value
2019-05-11T08:39:38.056Z,11.23
2019-05-11T08:42:19.759Z,13.20
2019-05-11T08:45:15.950Z,16.17
2019-05-11T08:47:48.541Z,10.47
2019-05-11T08:50:31.099Z,12.53
2019-05-11T08:53:13.793Z,12.07
2019-05-11T08:55:58.640Z,13.43
2019-05-11T08:58:40.700Z,15.13
2019-05-11T09:01:23.415Z,14.10
2019-05-11T09:04:08.710Z,11.70
2019-05-11T09:06:50.344Z,11.77
2019-05-11T09:09:33.133Z,14.17
2019-05-11T09:12:18.168Z,16.23
2019-05-11T09:15:00.154Z,16.13
2019-05-11T09:17:42.888Z,13.07
2019-05-11T09:20:28.500Z,11.30
2019-05-11T09:23:10.870Z,17.30
2019-05-11T09:25:53.708Z,15.07
2019-05-11T09:28:38.461Z,12.80
2019-05-11T09:31:20.536Z,14.47
2019-05-11T09:34:03.214Z,10.73
2019-05-11T09:36:47.828Z,10.40
2019-05-11T09:39:30.347Z,11.97
2019-05-11T09:42:13.194Z,10.30
2019-05-11T09:44:57.771Z,10.53
2019-05-11T09:47:40.100Z,10.13
2019-05-11T09:50:22.949Z,10.20
2019-05-11T09:53:05.640Z,15.57
2019-05-11T09:55:48.300Z,11.40
2019-05-11T09:58:31.045Z,18.00
2019-05-11T10:01:13.822Z,12.07
2019-05-11T10:03:58.448Z,11.70
2019-05-11T10:06:40.938Z,11.77
2019-05-11T10:09:23.708Z,11.50
2019-05-11T10:12:08.166Z,14.20
2019-05-11T10:14:50.880Z,11.83
2019-05-11T10:17:33.598Z,10.33
2019-05-11T10:20:18.131Z,12.87
2019-05-11T10:23:01.344Z,13.60
2019-05-11T10:25:45.134Z,9.77
2019-05-11T10:28:28.410Z,16.13
2019-05-11T10:31:10.967Z,15.60
2019-05-11T10:33:53.856Z,15.37
2019-05-11T10:36:38.343Z,13.93
2019-05-11T10:39:20.679Z,14.00
2019-05-11T10:42:03.364Z,12.27
2019-05-11T10:44:47.851Z,15.47
2019-05-11T10:47:30.453Z,12.27
2019-05-11T10:50:13.566Z,16.17
2019-05-11T10:52:58.770Z,15.20
2019-05-11T10:55:40.267Z,12.27
2019-05-11T10:58:23.383Z,14.83
2019-05-11T11:01:08.631Z,14.47
2019-05-11T11:03:50.436Z,10.40
2019-05-11T11:06:34.173Z,12.73
2019-05-11T11:09:17.959Z,9.23
2019-05-11T11:12:01.125Z,14.10
2019-05-11T11:14:44.009Z,16.83
2019-05-11T11:17:28.582Z,12.33
2019-05-11T11:20:11.210Z,13.33
2019-05-11T11:22:55.124Z,12.50
2019-05-11T11:25:38.774Z,17.13
2019-05-11T11:28:21.647Z,20.03
2019-05-11T11:31:04.579Z,15.87
2019-05-11T11:33:48.917Z,13.30
2019-05-11T11:36:31.646Z,16.00
2019-05-11T11:41:55.038Z,19.20
2019-05-11T11:44:38.026Z,17.67
2019-05-11T11:47:21.753Z,13.13
2019-05-11T11:50:05.009Z,13.83
2019-05-11T11:52:47.770Z,17.37
2019-05-11T11:55:30.439Z,13.70
2019-05-11T11:58:13.118Z,22.10
2019-05-11T12:00:55.775Z,12.47
2019-05-11T12:06:18.481Z,12.83
2019-05-11T12:09:01.404Z,13.53
2019-05-11T12:11:45.212Z,13.50
2019-05-11T12:14:28.320Z,12.53
2019-05-11T12:19:51.797Z,20.47
2019-05-11T12:22:34.780Z,11.43
2019-05-11T12:25:18.503Z,13.43
2019-05-11T12:28:01.717Z,14.00
2019-05-11T12:30:44.574Z,13.90
2019-05-11T12:33:27.971Z,15.43
2019-05-11T12:36:10.846Z,12.33
2019-05-11T12:38:53.509Z,13.07
2019-05-11T12:41:38.540Z,14.27
2019-05-11T12:44:20.957Z,15.27
2019-05-11T12:47:17.442Z,15.67
2019-05-11T12:49:48.357Z,17.53
2019-05-11T12:52:31.371Z,16.97
2019-05-11T12:55:14.200Z,16.73
2019-05-11T13:00:39.172Z,15.63
2019-05-11T13:03:21.706Z,12.70
2019-05-11T13:06:04.404Z,11.50
2019-05-11T13:08:48.089Z,15.70
2019-05-11T13:11:31.258Z,19.73
2019-05-11T13:14:13.862Z,13.30
2019-05-11T13:19:38.640Z,15.00
2019-05-11T13:22:21.471Z,13.40
2019-05-11T13:25:04.170Z,20.90
2019-05-11T13:27:48.953Z,11.83
2019-05-11T13:30:31.631Z,14.67
2019-05-11T13:33:14.325Z,17.30
2019-05-11T13:38:39.296Z,18.15
2019-05-11T13:41:21.872Z,13.38
2019-05-11T13:44:04.965Z,12.63
2019-05-11T13:46:48.167Z,13.00
2019-05-11T13:49:32.597Z,10.53
2019-05-11T13:52:17.489Z,12.63
2019-05-11T13:54:59.704Z,15.00
2019-05-11T13:57:42.671Z,9.60
2019-05-11T14:00:25.816Z,15.48
2019-05-11T14:03:09.658Z,12.35
2019-05-11T14:08:38.360Z,11.18
2019-05-11T14:11:21.358Z,11.50
2019-05-11T14:14:04.077Z,12.73
2019-05-11T14:16:48.297Z,11.38
2019-05-11T14:19:30.231Z,16.97
2019-05-11T14:22:13.046Z,12.43
2019-05-11T14:24:58.041Z,13.03
2019-05-11T14:27:40.446Z,11.65
2019-05-11T14:30:23.646Z,11.65
2019-05-11T14:33:08.522Z,10.53
2019-05-11T14:35:50.905Z,11.45
2019-05-11T14:38:33.880Z,15.28
2019-05-11T14:41:18.245Z,16.75
2019-05-11T14:44:00.550Z,14.73
2019-05-11T14:49:27.611Z,13.75
2019-05-11T14:52:09.306Z,15.25
2019-05-11T14:54:52.260Z,13.15
2019-05-11T14:57:34.965Z,11.85
2019-05-11T15:00:18.595Z,11.43
2019-05-11T15:03:01.522Z,8.05
2019-05-11T15:05:44.346Z,13.93
2019-05-11T15:08:28.654Z,9.65
2019-05-11T15:11:11.044Z,7.95
2019-05-11T15:13:53.695Z,10.95
2019-05-11T15:16:38.333Z,10.43
2019-05-11T15:19:21.204Z,8.08
2019-05-11T15:22:04.145Z,16.45
2019-05-11T15:24:48.402Z,9.70
2019-05-11T15:27:29.984Z,8.10
2019-05-11T15:30:12.777Z,7.60
2019-05-11T15:32:55.731Z,3.47
2019-05-11T15:35:38.508Z,8.05
2019-05-11T15:38:21.303Z,4.00
2019-05-11T15:41:04.194Z,5.22
2019-05-11T15:43:47.950Z,8.95
2019-05-11T15:46:30.742Z,11.20
2019-05-11T15:51:53.996Z,8.25
2019-05-11T15:54:38.455Z,3.35
2019-05-11T15:57:20.874Z,5.05
2019-05-11T16:00:03.646Z,8.15
2019-05-11T16:02:48.677Z,5.12
2019-05-11T16:05:30.705Z,6.05
2019-05-11T16:08:13.419Z,9.10
2019-05-11T16:10:57.771Z,3.95
2019-05-11T16:13:40.157Z,5.30
2019-05-11T16:16:22.843Z,7.33
2019-05-11T16:19:11.645Z,7.60
2019-05-11T16:24:30.227Z,9.78
2019-05-11T16:27:12.873Z,10.08
2019-05-11T16:29:55.890Z,5.05
2019-05-11T16:32:38.699Z,5.45
2019-05-11T16:35:21.703Z,8.30
2019-05-11T16:38:04.318Z,3.77
2019-05-11T16:40:48.193Z,5.53
2019-05-11T16:43:31.032Z,5.55
2019-05-11T16:46:13.758Z,3.52
2019-05-11T16:48:57.830Z,4.37
2019-05-11T16:51:40.562Z,7.85
2019-05-11T16:54:23.002Z,7.80
2019-05-11T16:57:08.431Z,4.85
2019-05-11T16:59:49.952Z,12.07
2019-05-11T17:02:32.875Z,4.45
2019-05-11T17:05:25.820Z,7.72
2019-05-11T17:07:59.777Z,4.17
2019-05-11T17:10:43.619Z,9.05
2019-05-11T17:16:08.666Z,6.45
2019-05-11T17:18:51.676Z,5.85
2019-05-11T17:21:34.072Z,3.33
2019-05-11T17:24:16.727Z,3.37
2019-05-11T17:26:59.584Z,5.42
2019-05-11T17:29:42.200Z,3.55
2019-05-11T17:32:25.295Z,2.98
2019-05-11T17:35:08.542Z,7.20
2019-05-11T17:40:33.579Z,3.65
2019-05-11T17:43:17.973Z,8.38
2019-05-11T17:46:00.498Z,3.83
2019-05-11T17:48:44.360Z,5.10
2019-05-11T17:51:28.553Z,4.35
2019-05-11T17:54:11.435Z,3.80
2019-05-11T17:56:54.287Z,5.78
2019-05-11T17:59:38.633Z,11.85
2019-05-11T18:02:21.341Z,3.60
2019-05-11T18:05:03.948Z,2.20
2019-05-11T18:07:46.674Z,2.83
2019-05-11T18:10:29.263Z,5.33
2019-05-11T18:13:12.288Z,4.72
2019-05-11T18:15:54.727Z,2.47
2019-05-11T18:21:18.880Z,5.75
2019-05-11T18:24:01.654Z,3.00
2019-05-11T18:26:44.245Z,2.33
2019-05-11T18:29:28.650Z,4.30
2019-05-11T18:34:51.705Z,2.12
2019-05-11T18:37:34.463Z,2.67
2019-05-11T18:40:18.720Z,3.05
2019-05-11T18:43:01.248Z,3.85
2019-05-11T18:45:44.151Z,7.67
2019-05-11T18:48:28.762Z,3.90
2019-05-11T18:51:12.140Z,2.67
2019-05-11T18:53:54.582Z,2.60
2019-05-11T18:59:19.553Z,2.47
2019-05-11T19:02:03.146Z,8.48
2019-05-11T19:04:45.900Z,2.65
2019-05-11T19:07:28.575Z,5.22
2019-05-11T19:10:12.038Z,2.37
2019-05-11T19:12:54.494Z,3.15
2019-05-11T19:15:38.796Z,3.72
2019-05-11T19:18:21.684Z,1.62
2019-05-11T19:21:04.571Z,2.50
2019-05-11T19:23:48.646Z,8.15
2019-05-11T19:26:31.587Z,3.47
2019-05-11T19:29:14.359Z,2.90
2019-05-11T19:31:58.058Z,2.83
2019-05-11T19:34:40.694Z,4.30
2019-05-11T19:37:44.633Z,1.12
2019-05-11T19:40:27.232Z,2.35
2019-05-11T19:45:50.910Z,2.30
2019-05-11T19:48:33.672Z,2.05
2019-05-11T19:51:18.277Z,3.12
2019-05-11T19:54:00.581Z,2.77
2019-05-11T19:56:43.260Z,5.65
2019-05-11T19:59:27.876Z,3.50
2019-05-11T20:04:51.030Z,2.77
2019-05-11T20:07:33.574Z,3.37
2019-05-11T20:10:18.535Z,1.05
2019-05-11T20:13:00.445Z,2.75
2019-05-11T20:15:43.311Z,1.07
2019-05-11T20:18:26.044Z,2.00
2019-05-11T20:21:19.257Z,5.90
2019-05-11T20:23:52.967Z,8.00
2019-05-11T20:26:37.709Z,6.58
2019-05-11T20:29:19.795Z,3.15
2019-05-11T20:32:02.637Z,3.12
2019-05-11T20:34:45.542Z,6.03
2019-05-11T20:37:28.628Z,0.85
2019-05-11T20:40:10.839Z,3.90
2019-05-11T20:42:53.952Z,1.05
2019-05-11T20:45:37.764Z,2.25
2019-05-11T20:48:20.865Z,5.22
2019-05-11T20:51:03.722Z,6.35
2019-05-11T20:53:48.829Z,5.17
2019-05-11T20:56:30.892Z,2.58
2019-05-11T20:59:14.244Z,1.57
2019-05-11T21:01:58.608Z,1.17
2019-05-11T21:04:42.678Z,3.17
2019-05-11T21:07:25.120Z,3.33
2019-05-11T21:10:08.675Z,1.57
2019-05-11T21:12:51.644Z,1.57
2019-05-11T21:15:34.500Z,2.20
2019-05-11T21:18:18.463Z,2.02
2019-05-11T21:21:01.588Z,3.52
2019-05-11T21:23:44.285Z,1.45
2019-05-11T21:26:28.224Z,1.52
2019-05-11T21:29:11.210Z,2.02
2019-05-11T21:31:54.509Z,1.70
2019-05-11T21:34:38.379Z,4.05
2019-05-11T21:37:22.181Z,4.80
2019-05-11T21:40:05.273Z,3.75
2019-05-11T21:42:48.808Z,2.72
2019-05-11T21:45:31.954Z,4.47
2019-05-11T21:48:14.840Z,4.05
2019-05-11T21:50:59.778Z,2.22
2019-05-11T21:53:43.083Z,5.17
2019-05-11T21:56:25.653Z,3.50
2019-05-11T21:59:09.146Z,1.37
2019-05-11T22:01:52.661Z,1.40
2019-05-11T22:04:35.410Z,3.45
2019-05-11T22:07:18.290Z,1.40
2019-05-11T22:10:01.207Z,2.40
2019-05-11T22:12:43.863Z,1.65
2019-05-11T22:15:28.406Z,3.67
2019-05-11T22:18:11.037Z,7.37
2019-05-11T22:20:53.949Z,1.75
2019-05-11T22:23:38.591Z,3.42
2019-05-11T22:26:21.422Z,1.52
2019-05-11T22:29:05.041Z,2.37
2019-05-11T22:31:48.668Z,7.80
2019-05-11T22:34:31.635Z,7.53
2019-05-11T22:37:14.633Z,11.30
2019-05-11T22:39:57.845Z,15.15
2019-05-11T22:42:40.818Z,10.23
2019-05-11T22:45:23.534Z,9.15
2019-05-11T22:48:07.905Z,18.27
2019-05-11T22:50:50.815Z,10.72
2019-05-11T22:53:44.727Z,10.13
2019-05-11T22:56:20.085Z,11.10
2019-05-11T22:59:03.098Z,9.15
2019-05-11T23:01:48.185Z,9.93
2019-05-11T23:04:31.212Z,11.48
2019-05-11T23:07:14.344Z,11.50
2019-05-11T23:09:57.628Z,12.33
2019-05-11T23:12:41.250Z,22.75
2019-05-11T23:15:24.197Z,12.18
2019-05-11T23:18:08.557Z,7.60
2019-05-11T23:20:50.935Z,7.65
2019-05-11T23:23:33.661Z,11.48
2019-05-11T23:26:17.869Z,10.72
2019-05-11T23:29:00.888Z,11.78
2019-05-11T23:31:43.776Z,11.78
2019-05-11T23:34:28.262Z,8.25
2019-05-11T23:37:11.293Z,8.50
2019-05-11T23:39:54.164Z,10.58
2019-05-11T23:42:38.085Z,8.58
2019-05-11T23:45:21.705Z,7.10
2019-05-11T23:48:04.600Z,5.12
2019-05-11T23:50:47.585Z,5.92
2019-05-11T23:53:30.851Z,8.50
2019-05-11T23:56:13.654Z,4.42
2019-05-11T23:58:57.868Z,8.13
